< < Back
Terminal Aerodrome Forecast


Current Version              Previous Versions:   1  2  3  4  5  6  7  8  9  

Terminal Aerodrome Forecast

276
FTUS42 KJAX 291726
TAFJAX
TAF
KJAX 291726Z 2918/3018 11008KT P6SM SCT050 SCT250
     FM300200 VRB03KT P6SM FEW250
     FM301400 14008KT P6SM FEW050=



Latest METAR

501
SAUS80 KWBC 301100
MTRJAX
METAR KJAX 301056Z 06004KT 5SM R08/1800VP6000FT BR FEW250 19/19 A2996
RMK AO2 SLP145 T01890189


USA.gov is the U.S. government's official web portal to all federal, state and local government web resources and services.